createdAt,value
2018-04-12T00:01:11.032Z,97383.32
2018-04-12T00:03:39.315Z,97379.03
2018-04-12T00:06:07.580Z,97375.92
2018-04-12T00:08:35.860Z,97372.07
2018-04-12T00:11:04.993Z,97372.52
2018-04-12T00:13:33.266Z,97360.12
2018-04-12T00:16:01.539Z,97353.12
2018-04-12T00:18:29.839Z,97344.58
2018-04-12T00:20:58.097Z,97346.60
2018-04-12T00:23:26.411Z,97344.66
2018-04-12T00:25:54.679Z,97339.78
2018-04-12T00:28:22.991Z,97337.80
2018-04-12T00:30:52.103Z,97334.43
2018-04-12T00:33:20.381Z,97329.83
2018-04-12T00:35:48.689Z,97327.30
2018-04-12T00:38:16.935Z,97322.48
2018-04-12T00:40:45.253Z,97325.45
2018-04-12T00:43:13.614Z,97322.31
2018-04-12T00:45:41.900Z,97324.52
2018-04-12T00:48:10.181Z,97322.38
2018-04-12T00:50:38.461Z,97317.25
2018-04-12T00:53:06.728Z,97313.81
2018-04-12T00:55:35.017Z,97312.84
2018-04-12T00:58:03.328Z,97312.96
2018-04-12T01:00:31.623Z,97302.08
2018-04-12T01:02:59.918Z,97296.50
2018-04-12T01:05:28.258Z,97298.97
2018-04-12T01:07:56.519Z,97294.63
2018-04-12T01:10:24.814Z,97291.41
2018-04-12T01:12:53.115Z,97289.90
2018-04-12T01:15:21.418Z,97285.97
2018-04-12T01:17:49.701Z,97279.92
2018-04-12T01:20:18.022Z,97281.50
2018-04-12T01:22:46.306Z,97277.63
2018-04-12T01:25:14.587Z,97269.37
2018-04-12T01:27:42.954Z,97268.12
2018-04-12T01:30:11.228Z,97266.83
2018-04-12T01:32:39.533Z,97264.09
2018-04-12T01:35:07.800Z,97257.95
2018-04-12T01:37:36.142Z,97254.73
2018-04-12T01:40:05.100Z,97241.42
2018-04-12T01:42:33.721Z,97249.22
2018-04-12T01:45:02.014Z,97243.40
2018-04-12T01:47:30.316Z,97246.78
2018-04-12T01:49:58.580Z,97243.14
2018-04-12T01:52:26.887Z,97244.48
2018-04-12T01:54:55.166Z,97248.22
2018-04-12T01:57:23.466Z,97244.28
2018-04-12T01:59:51.748Z,97242.66
2018-04-12T02:02:20.076Z,97246.27
2018-04-12T02:04:48.371Z,97247.86
2018-04-12T02:07:16.655Z,97243.55
2018-04-12T02:09:44.953Z,97245.31
2018-04-12T02:12:13.262Z,97226.23
2018-04-12T02:14:41.543Z,97234.02
2018-04-12T02:17:09.814Z,97236.33
2018-04-12T02:19:38.141Z,97233.45
2018-04-12T02:22:06.434Z,97236.52
2018-04-12T02:24:34.708Z,97236.00
2018-04-12T02:27:02.977Z,97227.86
2018-04-12T02:29:31.266Z,97225.69
2018-04-12T02:31:59.537Z,97233.49
2018-04-12T02:34:27.822Z,97229.38
2018-04-12T02:36:56.106Z,97226.27
2018-04-12T02:39:24.418Z,97227.04
2018-04-12T02:41:52.684Z,97219.09
2018-04-12T02:44:20.994Z,97216.70
2018-04-12T02:46:49.269Z,97210.22
2018-04-12T02:49:17.584Z,97204.61
2018-04-12T02:51:45.847Z,97207.58
2018-04-12T02:54:14.127Z,97211.98
2018-04-12T02:56:42.418Z,97205.66
2018-04-12T02:59:10.706Z,97209.65
2018-04-12T03:01:39.035Z,97203.26
2018-04-12T03:04:07.341Z,97202.13
2018-04-12T03:06:35.633Z,97194.18
2018-04-12T03:09:03.934Z,97186.19
2018-04-12T03:11:32.239Z,97181.43
2018-04-12T03:14:00.505Z,97174.07
2018-04-12T03:16:28.829Z,97163.85
2018-04-12T03:18:57.096Z,97161.78
2018-04-12T03:21:25.390Z,97160.83
2018-04-12T03:23:53.649Z,97161.50
2018-04-12T03:26:21.941Z,97159.31
2018-04-12T03:28:50.210Z,97159.92
2018-04-12T03:31:18.531Z,97156.13
2018-04-12T03:33:46.814Z,97153.95
2018-04-12T03:36:15.127Z,97149.25
2018-04-12T03:38:43.408Z,97139.34
2018-04-12T03:41:11.690Z,97139.95
2018-04-12T03:43:39.951Z,97136.18
2018-04-12T03:46:08.334Z,97131.92
2018-04-12T03:48:36.657Z,97132.84
2018-04-12T03:51:05.604Z,97135.86
2018-04-12T03:53:33.891Z,97135.96
2018-04-12T03:56:02.192Z,97136.63
2018-04-12T03:58:30.514Z,97146.11
2018-04-12T04:00:58.821Z,97143.94
2018-04-12T04:03:27.152Z,97146.08
2018-04-12T04:05:55.746Z,97149.82
2018-04-12T04:08:24.037Z,97147.77
2018-04-12T04:10:52.318Z,97147.34
2018-04-12T04:13:20.615Z,97151.23
2018-04-12T04:16:00.706Z,97146.31
2018-04-12T04:18:41.620Z,97118.56
2018-04-12T04:21:09.902Z,97143.28
2018-04-12T04:23:38.195Z,97145.03
2018-04-12T04:26:06.474Z,97146.18
2018-04-12T04:28:34.779Z,97148.38
2018-04-12T04:31:03.078Z,97154.98
2018-04-12T04:33:31.396Z,97149.59
2018-04-12T04:35:59.662Z,97151.97
2018-04-12T04:38:28.644Z,97152.66
2018-04-12T04:40:56.960Z,97158.20
2018-04-12T04:43:25.226Z,97165.47
2018-04-12T04:45:53.545Z,97159.53
2018-04-12T04:48:21.862Z,97168.99
2018-04-12T04:50:50.138Z,97177.22
2018-04-12T04:53:18.451Z,97185.59
2018-04-12T04:55:46.779Z,97193.45
2018-04-12T04:58:15.052Z,97193.77
2018-04-12T05:00:43.350Z,97195.23
2018-04-12T05:03:11.672Z,97198.80
2018-04-12T05:05:39.979Z,97191.66
2018-04-12T05:08:08.272Z,97183.39
2018-04-12T05:10:36.618Z,97179.90
2018-04-12T05:13:04.897Z,97180.38
2018-04-12T05:15:33.681Z,97180.59
2018-04-12T05:18:01.892Z,97173.06
2018-04-12T05:20:30.235Z,97166.19
2018-04-12T05:22:58.577Z,97167.48
2018-04-12T05:25:26.846Z,97163.39
2018-04-12T05:27:55.158Z,97155.55
2018-04-12T05:30:23.434Z,97160.41
2018-04-12T05:32:52.348Z,97153.50
2018-04-12T05:35:20.678Z,97155.75
2018-04-12T05:37:49.006Z,97153.05
2018-04-12T05:40:17.282Z,97142.86
2018-04-12T05:42:45.583Z,97150.23
2018-04-12T05:45:13.913Z,97144.91
2018-04-12T05:47:42.312Z,97143.65
2018-04-12T05:50:10.571Z,97142.20
2018-04-12T05:52:38.842Z,97148.27
2018-04-12T05:55:07.161Z,97141.09
2018-04-12T05:57:35.451Z,97134.40
2018-04-12T06:00:03.774Z,97121.47
2018-04-12T06:02:32.174Z,97120.45
2018-04-12T06:05:00.546Z,97126.53
2018-04-12T06:07:28.860Z,97125.20
2018-04-12T06:09:57.135Z,97120.95
2018-04-12T06:12:25.416Z,97102.55
2018-04-12T06:14:53.734Z,97115.89
2018-04-12T06:17:22.006Z,97113.88
2018-04-12T06:19:50.311Z,97119.59
2018-04-12T06:22:18.585Z,97130.41
2018-04-12T06:24:46.901Z,97136.77
2018-04-12T06:27:15.190Z,97131.41
2018-04-12T06:29:43.497Z,97134.08
2018-04-12T06:32:11.833Z,97131.31
2018-04-12T06:34:40.121Z,97136.58
2018-04-12T06:37:09.366Z,97142.98
2018-04-12T06:39:37.663Z,97147.77
2018-04-12T06:42:06.390Z,97114.42
2018-04-12T06:44:34.688Z,97135.16
2018-04-12T06:47:03.013Z,97141.67
2018-04-12T06:49:31.287Z,97145.55
2018-04-12T06:51:59.617Z,97140.44
2018-04-12T06:54:27.898Z,97139.12
2018-04-12T06:56:56.229Z,97127.23
2018-04-12T06:59:24.526Z,97131.81
2018-04-12T07:01:52.859Z,97129.50
2018-04-12T07:04:21.136Z,97132.35
2018-04-12T07:06:49.453Z,97121.05
2018-04-12T07:09:17.731Z,97125.96
2018-04-12T07:11:46.129Z,97127.63
2018-04-12T07:14:14.379Z,97128.41
2018-04-12T07:16:42.702Z,97133.78
2018-04-12T07:19:11.072Z,97135.00
2018-04-12T07:21:39.346Z,97131.85
2018-04-12T07:24:07.695Z,97138.95
2018-04-12T07:26:35.961Z,97130.13
2018-04-12T07:29:04.968Z,97099.06
2018-04-12T07:31:33.270Z,97120.72
2018-04-12T07:34:01.682Z,97122.46
2018-04-12T07:36:29.962Z,97125.34
2018-04-12T07:38:58.515Z,97123.84
2018-04-12T07:41:26.846Z,97125.56
2018-04-12T07:43:55.197Z,97118.20
2018-04-12T07:46:23.490Z,97118.59
2018-04-12T07:48:51.785Z,97127.84
2018-04-12T07:51:20.071Z,97125.97
2018-04-12T07:53:48.409Z,97138.03
2018-04-12T07:56:16.687Z,97135.49
2018-04-12T07:58:45.027Z,97148.19
2018-04-12T08:01:13.367Z,97145.88
2018-04-12T08:03:41.714Z,97151.47
2018-04-12T08:06:09.988Z,97150.03
2018-04-12T08:08:38.326Z,97151.13
2018-04-12T08:11:06.878Z,97146.50
2018-04-12T08:13:35.166Z,97145.29
2018-04-12T08:16:03.449Z,97130.41
2018-04-12T08:18:31.754Z,97149.28
2018-04-12T08:21:00.086Z,97148.38
2018-04-12T08:23:28.348Z,97150.41
2018-04-12T08:25:56.654Z,97148.05
2018-04-12T08:28:24.936Z,97150.86
2018-04-12T08:30:53.255Z,97156.92
2018-04-12T08:33:21.570Z,97153.84
2018-04-12T08:35:50.466Z,97159.52
2018-04-12T08:38:18.761Z,97175.20
2018-04-12T08:40:47.075Z,97176.08
2018-04-12T08:43:15.376Z,97182.69
2018-04-12T08:45:43.667Z,97189.72
2018-04-12T08:48:12.133Z,97193.41
2018-04-12T08:50:41.203Z,97196.48
2018-04-12T08:53:09.487Z,97200.66
2018-04-12T08:55:37.991Z,97196.92
2018-04-12T08:58:06.266Z,97209.97
2018-04-12T09:00:34.609Z,97211.00
2018-04-12T09:03:02.891Z,97204.73
2018-04-12T09:05:31.689Z,97223.39
2018-04-12T09:08:01.184Z,97214.64
2018-04-12T09:10:29.485Z,97221.38
2018-04-12T09:12:58.183Z,97216.81
2018-04-12T09:15:26.479Z,97214.20
2018-04-12T09:17:54.838Z,97210.91
2018-04-12T09:20:23.062Z,97218.95
2018-04-12T09:22:51.470Z,97225.34
2018-04-12T09:25:19.903Z,97226.97
2018-04-12T09:27:48.214Z,97236.88
2018-04-12T09:30:16.680Z,97214.67
2018-04-12T09:32:45.005Z,97234.52
2018-04-12T09:35:13.283Z,97245.56
2018-04-12T09:37:41.609Z,97250.21
2018-04-12T09:40:09.919Z,97254.81
2018-04-12T09:42:38.232Z,97244.69
2018-04-12T09:45:06.573Z,97248.88
2018-04-12T09:47:34.858Z,97248.38
2018-04-12T09:50:03.181Z,97250.97
2018-04-12T09:52:31.464Z,97263.16
2018-04-12T09:54:59.830Z,97269.41
2018-04-12T09:57:28.158Z,97274.58
2018-04-12T09:59:56.553Z,97278.67
2018-04-12T10:02:28.563Z,97285.69
2018-04-12T10:05:00.654Z,97283.34
2018-04-12T10:07:34.560Z,97280.48
2018-04-12T10:10:02.863Z,97284.67
2018-04-12T10:12:31.309Z,97282.31
2018-04-12T10:14:59.571Z,97282.61
2018-04-12T10:17:27.908Z,97291.59
2018-04-12T10:19:56.169Z,97297.13
2018-04-12T10:22:24.959Z,97292.92
2018-04-12T10:24:53.261Z,97311.59
2018-04-12T10:27:21.536Z,97313.99
2018-04-12T10:29:49.848Z,97306.24
2018-04-12T10:32:18.167Z,97311.81
2018-04-12T10:34:46.480Z,97314.88
2018-04-12T10:37:14.754Z,97309.77
2018-04-12T10:39:43.065Z,97311.90
2018-04-12T10:42:11.382Z,97326.45
2018-04-12T10:44:39.681Z,97332.56
2018-04-12T10:47:08.504Z,97333.55
2018-04-12T10:49:36.766Z,97338.78
2018-04-12T10:52:05.286Z,97352.12
2018-04-12T10:54:33.552Z,97358.77
2018-04-12T10:57:01.863Z,97364.06
2018-04-12T10:59:30.132Z,97360.38
2018-04-12T11:01:58.420Z,97373.95
2018-04-12T11:04:27.133Z,97380.38
2018-04-12T11:06:55.471Z,97386.63
2018-04-12T11:09:24.749Z,97380.52
2018-04-12T11:11:53.099Z,97369.95
2018-04-12T11:14:21.825Z,97371.08
2018-04-12T11:16:50.077Z,97386.30
2018-04-12T11:19:18.393Z,97380.53
2018-04-12T11:21:46.663Z,97372.25
2018-04-12T11:24:15.005Z,97374.53
2018-04-12T11:26:43.235Z,97375.59
2018-04-12T11:29:11.603Z,97370.58
2018-04-12T11:31:39.903Z,97365.84
2018-04-12T11:34:08.228Z,97354.75
2018-04-12T11:36:36.466Z,97351.20
2018-04-12T11:39:06.707Z,97350.70
2018-04-12T11:41:34.980Z,97345.02
2018-04-12T11:44:04.148Z,97339.89
2018-04-12T11:46:32.431Z,97338.97
2018-04-12T11:49:00.708Z,97332.09
2018-04-12T11:51:28.991Z,97345.88
2018-04-12T11:53:57.279Z,97337.75
2018-04-12T11:56:25.577Z,97335.09
2018-04-12T11:58:53.863Z,97342.16
2018-04-12T12:01:22.172Z,97356.41
2018-04-12T12:03:50.470Z,97374.66
2018-04-12T12:06:18.737Z,97368.34
2018-04-12T12:08:47.028Z,97360.80
2018-04-12T12:11:15.335Z,97340.98
2018-04-12T12:13:43.598Z,97354.38
2018-04-12T12:16:11.944Z,97353.84
2018-04-12T12:18:40.613Z,97347.23
2018-04-12T12:21:09.040Z,97351.58
2018-04-12T12:23:37.315Z,97333.28
2018-04-12T12:26:05.596Z,97329.88
2018-04-12T12:28:34.314Z,97334.43
2018-04-12T12:31:02.643Z,97337.03
2018-04-12T12:33:31.007Z,97349.77
2018-04-12T12:35:59.278Z,97359.83
2018-04-12T12:38:27.590Z,97367.00
2018-04-12T12:40:55.856Z,97360.78
2018-04-12T12:43:29.881Z,97366.97
2018-04-12T12:45:58.129Z,97367.90
2018-04-12T12:48:32.202Z,97352.64
2018-04-12T12:51:06.243Z,97351.77
2018-04-12T12:53:34.544Z,97345.45
2018-04-12T12:56:02.829Z,97340.70
2018-04-12T12:58:31.149Z,97361.50
2018-04-12T13:00:59.450Z,97361.52
2018-04-12T13:03:33.671Z,97364.30
2018-04-12T13:06:01.944Z,97361.41
2018-04-12T13:08:30.667Z,97361.41
2018-04-12T13:11:04.797Z,97370.50
2018-04-12T13:13:33.828Z,97378.48
2018-04-12T13:16:02.118Z,97372.92
2018-04-12T13:18:30.466Z,97387.57
2018-04-12T13:20:59.597Z,97384.47
2018-04-12T13:23:27.891Z,97383.28
2018-04-12T13:25:56.206Z,97379.84
2018-04-12T13:28:25.460Z,97371.62
2018-04-12T13:30:59.652Z,97379.58
2018-04-12T13:33:33.482Z,97388.70
2018-04-12T13:36:01.774Z,97387.82
2018-04-12T13:38:30.145Z,97393.10
2018-04-12T13:41:04.412Z,97383.38
2018-04-12T13:43:32.739Z,97390.00
2018-04-12T13:46:06.619Z,97385.76
2018-04-12T13:48:34.893Z,97392.39
2018-04-12T13:51:09.104Z,97393.97
2018-04-12T13:53:37.397Z,97388.16
2018-04-12T13:56:06.277Z,97390.88
2018-04-12T13:58:34.577Z,97392.94
2018-04-12T14:01:02.926Z,97387.08
2018-04-12T14:03:31.672Z,97382.98
2018-04-12T14:05:59.961Z,97386.18
2018-04-12T14:08:28.275Z,97381.00
2018-04-12T14:10:56.580Z,97375.47
2018-04-12T14:13:24.888Z,97380.56
2018-04-12T14:15:53.162Z,97387.69
2018-04-12T14:18:21.465Z,97381.13
2018-04-12T14:20:49.792Z,97376.70
2018-04-12T14:23:23.577Z,97372.95
2018-04-12T14:25:51.842Z,97368.77
2018-04-12T14:28:20.141Z,97366.30
2018-04-12T14:30:48.523Z,97371.87
2018-04-12T14:33:16.798Z,97372.63
2018-04-12T14:35:45.075Z,97371.61
2018-04-12T14:38:13.358Z,97382.78
2018-04-12T14:40:41.678Z,97376.73
2018-04-12T14:43:10.040Z,97368.66
2018-04-12T14:45:43.896Z,97375.92
2018-04-12T14:48:12.232Z,97371.78
2018-04-12T14:50:41.413Z,97374.74
2018-04-12T14:53:09.741Z,97357.70
2018-04-12T14:55:44.035Z,97373.97
2018-04-12T14:58:12.334Z,97373.55
2018-04-12T15:00:40.654Z,97380.23
2018-04-12T15:03:14.710Z,97367.31
2018-04-12T15:05:42.987Z,97377.83
2018-04-12T15:08:12.020Z,97384.15
2018-04-12T15:10:46.179Z,97381.91
2018-04-12T15:13:26.098Z,97383.56
2018-04-12T15:15:55.357Z,97381.80
2018-04-12T15:18:29.383Z,97380.09
2018-04-12T15:21:03.462Z,97375.28
2018-04-12T15:23:37.581Z,97379.40
2018-04-12T15:26:05.877Z,97381.29
2018-04-12T15:28:34.145Z,97374.92
2018-04-12T15:31:02.461Z,97369.34
2018-04-12T15:33:30.764Z,97366.72
2018-04-12T15:35:59.062Z,97367.91
2018-04-12T15:38:27.447Z,97369.64
2018-04-12T15:41:07.230Z,97369.45
2018-04-12T15:43:41.357Z,97375.91
2018-04-12T15:46:09.708Z,97383.56
2018-04-12T15:48:43.850Z,97378.08
2018-04-12T15:51:12.493Z,97371.87
2018-04-12T15:53:42.027Z,97365.34
2018-04-12T15:56:10.307Z,97362.63
2018-04-12T15:58:44.478Z,97370.13
2018-04-12T16:01:18.899Z,97371.81
2018-04-12T16:03:48.416Z,97373.70
2018-04-12T16:06:16.830Z,97371.56
2018-04-12T16:08:51.388Z,97383.77
2018-04-12T16:11:31.162Z,97379.17
2018-04-12T16:14:00.421Z,97387.91
2018-04-12T16:16:28.718Z,97389.77
2018-04-12T16:18:57.024Z,97396.55
2018-04-12T16:21:31.077Z,97397.23
2018-04-12T16:24:16.861Z,97390.69
2018-04-12T16:26:50.677Z,97386.39
2018-04-12T16:29:24.669Z,97395.71
2018-04-12T16:31:58.475Z,97401.66
2018-04-12T16:34:26.813Z,97401.79
2018-04-12T16:37:01.748Z,97393.80
2018-04-12T16:39:35.556Z,97400.84
2018-04-12T16:42:03.842Z,97391.58
2018-04-12T16:44:43.670Z,97392.77
2018-04-12T16:47:17.688Z,97393.91
2018-04-12T16:49:46.017Z,97392.80
2018-04-12T16:52:19.973Z,97392.06
2018-04-12T16:54:48.313Z,97392.64
2018-04-12T16:57:16.591Z,97399.01
2018-04-12T16:59:44.924Z,97402.48
2018-04-12T17:02:13.224Z,97410.72
2018-04-12T17:04:47.487Z,97404.95
2018-04-12T17:07:15.812Z,97400.80
2018-04-12T17:09:44.092Z,97397.62
2018-04-12T17:12:17.916Z,97396.73
2018-04-12T17:14:51.921Z,97403.23
2018-04-12T17:17:20.285Z,97400.75
2018-04-12T17:19:54.128Z,97404.53
2018-04-12T17:22:28.230Z,97409.46
2018-04-12T17:25:02.155Z,97415.89
2018-04-12T17:27:36.226Z,97415.66
2018-04-12T17:30:10.455Z,97416.16
2018-04-12T17:32:38.896Z,97416.76
2018-04-12T17:35:07.232Z,97421.41
2018-04-12T17:37:36.335Z,97428.04
2018-04-12T17:40:10.425Z,97416.64
2018-04-12T17:42:38.710Z,97427.47
2018-04-12T17:45:06.986Z,97421.56
2018-04-12T17:47:40.995Z,97425.21
2018-04-12T17:50:09.278Z,97423.33
2018-04-12T17:52:37.586Z,97423.06
2018-04-12T17:55:05.839Z,97427.48
2018-04-12T17:57:34.962Z,97408.44
2018-04-12T18:00:03.303Z,97427.85
2018-04-12T18:02:31.580Z,97425.66
2018-04-12T18:04:59.914Z,97430.78
2018-04-12T18:07:28.192Z,97432.77
2018-04-12T18:09:56.675Z,97428.58
2018-04-12T18:12:24.981Z,97422.67
2018-04-12T18:14:53.325Z,97411.39
2018-04-12T18:17:27.626Z,97411.90
2018-04-12T18:19:56.873Z,97426.66
2018-04-12T18:22:30.816Z,97424.72
2018-04-12T18:24:59.137Z,97423.48
2018-04-12T18:27:27.439Z,97436.16
2018-04-12T18:29:55.765Z,97435.31
2018-04-12T18:32:35.319Z,97430.91
2018-04-12T18:35:03.732Z,97428.89
2018-04-12T18:37:37.802Z,97426.79
2018-04-12T18:40:06.150Z,97422.19
2018-04-12T18:42:34.406Z,97433.48
2018-04-12T18:45:02.698Z,97436.22
2018-04-12T18:47:31.300Z,97434.80
2018-04-12T18:50:11.181Z,97436.49
2018-04-12T18:52:39.595Z,97437.59
2018-04-12T18:55:13.522Z,97431.58
2018-04-12T18:57:41.803Z,97438.55
2018-04-12T19:00:10.078Z,97441.14
2018-04-12T19:02:38.436Z,97439.41
2018-04-12T19:05:06.709Z,97445.34
2018-04-12T19:07:35.043Z,97445.67
2018-04-12T19:10:03.362Z,97451.42
2018-04-12T19:12:31.718Z,97452.07
2018-04-12T19:14:59.988Z,97454.25
2018-04-12T19:17:28.280Z,97452.56
2018-04-12T19:19:56.625Z,97449.73
2018-04-12T19:22:24.934Z,97452.03
2018-04-12T19:24:53.268Z,97456.93
2018-04-12T19:27:21.519Z,97455.05
2018-04-12T19:29:55.454Z,97452.91
2018-04-12T19:32:29.745Z,97453.05
2018-04-12T19:35:03.900Z,97459.14
2018-04-12T19:37:32.230Z,97456.06
2018-04-12T19:40:00.471Z,97455.57
2018-04-12T19:42:34.248Z,97459.77
2018-04-12T19:45:02.512Z,97456.27
2018-04-12T19:47:30.801Z,97458.69
2018-04-12T19:49:59.055Z,97452.64
2018-04-12T19:52:27.340Z,97458.56
2018-04-12T19:55:01.360Z,97456.77
2018-04-12T19:57:29.675Z,97457.41
2018-04-12T20:00:04.311Z,97448.19
2018-04-12T20:02:32.623Z,97455.36
2018-04-12T20:05:00.948Z,97452.45
2018-04-12T20:07:35.099Z,97447.89
2018-04-12T20:10:09.265Z,97447.02
2018-04-12T20:12:37.567Z,97449.11
2018-04-12T20:15:17.266Z,97450.50
2018-04-12T20:17:57.447Z,97440.72
2018-04-12T20:20:31.762Z,97440.83
2018-04-12T20:23:06.026Z,97447.20
2018-04-12T20:25:40.042Z,97448.45
2018-04-12T20:28:14.207Z,97442.54
2018-04-12T20:30:48.374Z,97455.63
2018-04-12T20:33:22.558Z,97457.28
2018-04-12T20:35:50.822Z,97449.50
2018-04-12T20:38:19.102Z,97461.08
2018-04-12T20:40:47.398Z,97463.28
2018-04-12T20:43:15.671Z,97469.00
2018-04-12T20:45:43.977Z,97472.45
2018-04-12T20:48:17.960Z,97474.38
2018-04-12T20:50:46.270Z,97475.78
2018-04-12T20:53:20.487Z,97476.11
2018-04-12T20:55:48.786Z,97468.73
2018-04-12T20:58:17.143Z,97466.75
2018-04-12T21:00:45.513Z,97473.77
2018-04-12T21:03:13.788Z,97474.58
2018-04-12T21:05:47.649Z,97470.00
2018-04-12T21:08:15.981Z,97467.04
2018-04-12T21:10:44.261Z,97472.61
2018-04-12T21:13:12.525Z,97464.28
2018-04-12T21:15:40.844Z,97465.25
2018-04-12T21:18:15.122Z,97470.12
2018-04-12T21:20:43.444Z,97473.41
2018-04-12T21:23:17.226Z,97475.01
2018-04-12T21:25:51.038Z,97472.50
2018-04-12T21:28:19.358Z,97477.38
2018-04-12T21:30:47.634Z,97480.67
2018-04-12T21:33:21.787Z,97476.41
2018-04-12T21:35:50.064Z,97481.31
2018-04-12T21:38:18.346Z,97478.68
2018-04-12T21:40:46.609Z,97478.18
2018-04-12T21:43:14.910Z,97470.81
2018-04-12T21:45:43.258Z,97471.70
2018-04-12T21:48:11.545Z,97473.33
2018-04-12T21:50:39.815Z,97467.59
2018-04-12T21:53:08.935Z,97472.16
2018-04-12T21:55:37.190Z,97470.63
2018-04-12T21:58:05.491Z,97473.17
2018-04-12T22:00:33.765Z,97477.16
2018-04-12T22:03:02.022Z,97477.38
2018-04-12T22:05:30.301Z,97478.02
2018-04-12T22:08:04.319Z,97476.33
2018-04-12T22:10:32.688Z,97479.09
2018-04-12T22:13:00.931Z,97492.09
2018-04-12T22:15:34.987Z,97485.53
2018-04-12T22:18:03.265Z,97484.70
2018-04-12T22:20:37.166Z,97485.10
2018-04-12T22:23:05.490Z,97487.13
2018-04-12T22:25:33.781Z,97490.16
2018-04-12T22:28:02.065Z,97491.91
2018-04-12T22:30:30.933Z,97488.34
2018-04-12T22:32:59.179Z,97490.08
2018-04-12T22:35:33.453Z,97487.19
2018-04-12T22:38:01.690Z,97490.75
2018-04-12T22:40:29.995Z,97485.70
2018-04-12T22:42:58.258Z,97490.82
2018-04-12T22:45:26.549Z,97486.66
2018-04-12T22:47:54.858Z,97494.09
2018-04-12T22:50:23.461Z,97493.86
2018-04-12T22:52:57.701Z,97491.88
2018-04-12T22:55:25.959Z,97496.56
2018-04-12T22:57:54.241Z,97500.25
2018-04-12T23:00:34.368Z,97513.22
2018-04-12T23:03:02.641Z,97507.83
2018-04-12T23:05:36.765Z,97509.41
2018-04-12T23:08:10.542Z,97509.81
2018-04-12T23:10:38.850Z,97503.20
2018-04-12T23:13:07.130Z,97507.79
2018-04-12T23:15:35.474Z,97506.32
2018-04-12T23:18:09.544Z,97497.91
2018-04-12T23:20:43.482Z,97509.73
2018-04-12T23:23:11.773Z,97506.79
2018-04-12T23:25:40.081Z,97499.13
2018-04-12T23:28:08.363Z,97512.70
2018-04-12T23:30:36.627Z,97519.33
2018-04-12T23:33:05.870Z,97516.67
2018-04-12T23:35:34.157Z,97520.97
2018-04-12T23:38:08.105Z,97521.05
2018-04-12T23:40:37.241Z,97525.09
2018-04-12T23:43:05.823Z,97512.89
2018-04-12T23:45:34.122Z,97527.39
2018-04-12T23:48:02.377Z,97524.07
2018-04-12T23:50:30.672Z,97529.73
2018-04-12T23:52:58.951Z,97527.52
2018-04-12T23:55:38.986Z,97529.97
2018-04-12T23:58:12.762Z,97518.51
